sensor_id;sensor_type;location;lat;lon;timestamp;pressure;altitude;pressure_sealevel;temperature;humidity
61908;BME280;47864;52.526;19.672;2022-11-28T00:00:55;101991.09;;;3.10;100.00
61908;BME280;47864;52.526;19.672;2022-11-28T00:02:57;101987.03;;;3.02;100.00
61908;BME280;47864;52.526;19.672;2022-11-28T00:04:59;101983.13;;;2.92;100.00
61908;BME280;47864;52.526;19.672;2022-11-28T00:07:01;101985.22;;;3.04;100.00
61908;BME280;47864;52.526;19.672;2022-11-28T00:09:03;101982.25;;;3.12;100.00
61908;BME280;47864;52.526;19.672;2022-11-28T00:11:07;101979.97;;;3.04;100.00
61908;BME280;47864;52.526;19.672;2022-11-28T00:13:09;101976.63;;;3.01;100.00
61908;BME280;47864;52.526;19.672;2022-11-28T00:15:12;101975.56;;;3.05;100.00
61908;BME280;47864;52.526;19.672;2022-11-28T00:17:14;101977.97;;;3.10;100.00
61908;BME280;47864;52.526;19.672;2022-11-28T00:19:15;101966.78;;;3.06;100.00
61908;BME280;47864;52.526;19.672;2022-11-28T00:21:18;101975.81;;;3.19;100.00
61908;BME280;47864;52.526;19.672;2022-11-28T00:23:20;101974.03;;;3.20;100.00
61908;BME280;47864;52.526;19.672;2022-11-28T00:25:22;101977.34;;;3.23;100.00
61908;BME280;47864;52.526;19.672;2022-11-28T00:27:24;101977.47;;;3.01;100.00
61908;BME280;47864;52.526;19.672;2022-11-28T00:29:25;101977.13;;;3.09;100.00
61908;BME280;47864;52.526;19.672;2022-11-28T00:31:29;101978.97;;;3.07;100.00
61908;BME280;47864;52.526;19.672;2022-11-28T00:33:32;101978.84;;;3.10;100.00
61908;BME280;47864;52.526;19.672;2022-11-28T00:35:34;101979.19;;;3.02;100.00
61908;BME280;47864;52.526;19.672;2022-11-28T00:37:36;101971.31;;;3.02;100.00
61908;BME280;47864;52.526;19.672;2022-11-28T00:39:37;101977.34;;;3.04;100.00
61908;BME280;47864;52.526;19.672;2022-11-28T00:41:39;101977.13;;;3.09;100.00
61908;BME280;47864;52.526;19.672;2022-11-28T00:43:42;101968.47;;;3.07;100.00
61908;BME280;47864;52.526;19.672;2022-11-28T00:45:44;101964.84;;;2.91;100.00
61908;BME280;47864;52.526;19.672;2022-11-28T00:47:47;101965.56;;;2.94;100.00
61908;BME280;47864;52.526;19.672;2022-11-28T00:49:48;101963.53;;;2.81;100.00
61908;BME280;47864;52.526;19.672;2022-11-28T00:51:50;101965.75;;;2.90;100.00
61908;BME280;47864;52.526;19.672;2022-11-28T00:53:54;101943.94;;;2.71;100.00
61908;BME280;47864;52.526;19.672;2022-11-28T00:55:56;101956.19;;;2.89;100.00
61908;BME280;47864;52.526;19.672;2022-11-28T00:57:58;101956.63;;;2.98;100.00
61908;BME280;47864;52.526;19.672;2022-11-28T00:59:59;101960.25;;;2.96;100.00
61908;BME280;47864;52.526;19.672;2022-11-28T01:02:01;101962.88;;;2.96;100.00
61908;BME280;47864;52.526;19.672;2022-11-28T01:04:06;101966.94;;;3.03;100.00
61908;BME280;47864;52.526;19.672;2022-11-28T01:06:10;101956.22;;;3.08;100.00
61908;BME280;47864;52.526;19.672;2022-11-28T01:08:12;101953.16;;;2.98;100.00
61908;BME280;47864;52.526;19.672;2022-11-28T01:10:13;101955.03;;;2.96;100.00
61908;BME280;47864;52.526;19.672;2022-11-28T01:12:16;101952.31;;;2.97;100.00
61908;BME280;47864;52.526;19.672;2022-11-28T01:14:20;101949.00;;;2.94;100.00
61908;BME280;47864;52.526;19.672;2022-11-28T01:16:22;101948.06;;;2.95;100.00
61908;BME280;47864;52.526;19.672;2022-11-28T01:18:24;101947.28;;;2.93;100.00
61908;BME280;47864;52.526;19.672;2022-11-28T01:20:26;101948.75;;;2.80;100.00
61908;BME280;47864;52.526;19.672;2022-11-28T01:22:28;101943.03;;;2.90;100.00
61908;BME280;47864;52.526;19.672;2022-11-28T01:24:30;101943.25;;;2.86;100.00
61908;BME280;47864;52.526;19.672;2022-11-28T01:26:32;101944.38;;;2.99;100.00
61908;BME280;47864;52.526;19.672;2022-11-28T01:28:34;101927.03;;;2.96;100.00
61908;BME280;47864;52.526;19.672;2022-11-28T01:30:36;101933.78;;;3.02;100.00
61908;BME280;47864;52.526;19.672;2022-11-28T01:32:38;101926.47;;;3.09;100.00
61908;BME280;47864;52.526;19.672;2022-11-28T01:34:40;101927.88;;;3.16;100.00
61908;BME280;47864;52.526;19.672;2022-11-28T01:36:42;101926.25;;;3.13;100.00
61908;BME280;47864;52.526;19.672;2022-11-28T01:38:44;101917.81;;;3.06;100.00
61908;BME280;47864;52.526;19.672;2022-11-28T01:40:46;101916.91;;;3.08;100.00
61908;BME280;47864;52.526;19.672;2022-11-28T01:42:48;101907.63;;;3.00;100.00
61908;BME280;47864;52.526;19.672;2022-11-28T01:46:55;101901.25;;;2.87;100.00
61908;BME280;47864;52.526;19.672;2022-11-28T01:49:04;101914.84;;;2.95;100.00
61908;BME280;47864;52.526;19.672;2022-11-28T01:51:08;101909.03;;;2.89;100.00
61908;BME280;47864;52.526;19.672;2022-11-28T01:53:11;101908.38;;;2.84;100.00
61908;BME280;47864;52.526;19.672;2022-11-28T01:55:14;101911.06;;;2.82;100.00
61908;BME280;47864;52.526;19.672;2022-11-28T01:57:21;101897.44;;;2.94;100.00
61908;BME280;47864;52.526;19.672;2022-11-28T01:59:27;101897.94;;;3.02;100.00
61908;BME280;47864;52.526;19.672;2022-11-28T02:01:30;101900.53;;;3.02;100.00
61908;BME280;47864;52.526;19.672;2022-11-28T02:03:40;101894.53;;;3.00;100.00
61908;BME280;47864;52.526;19.672;2022-11-28T02:05:44;101905.28;;;2.94;100.00
61908;BME280;47864;52.526;19.672;2022-11-28T02:07:46;101895.38;;;3.01;100.00
61908;BME280;47864;52.526;19.672;2022-11-28T02:09:49;101891.75;;;3.03;100.00
61908;BME280;47864;52.526;19.672;2022-11-28T02:33:13;101885.31;;;3.29;100.00
61908;BME280;47864;52.526;19.672;2022-11-28T02:35:27;101884.28;;;3.32;100.00
61908;BME280;47864;52.526;19.672;2022-11-28T02:42:15;101883.59;;;3.28;100.00
61908;BME280;47864;52.526;19.672;2022-11-28T02:48:59;101867.09;;;3.08;100.00
61908;BME280;47864;52.526;19.672;2022-11-28T02:51:11;101870.28;;;3.14;100.00
61908;BME280;47864;52.526;19.672;2022-11-28T02:53:19;101867.75;;;3.13;100.00
61908;BME280;47864;52.526;19.672;2022-11-28T02:55:23;101869.16;;;3.20;100.00
61908;BME280;47864;52.526;19.672;2022-11-28T02:57:46;101866.13;;;3.10;100.00
61908;BME280;47864;52.526;19.672;2022-11-28T02:59:49;101865.31;;;3.08;100.00
61908;BME280;47864;52.526;19.672;2022-11-28T03:01:51;101864.47;;;3.08;100.00
61908;BME280;47864;52.526;19.672;2022-11-28T03:04:05;101869.72;;;3.08;100.00
61908;BME280;47864;52.526;19.672;2022-11-28T03:13:17;101858.63;;;3.02;100.00
61908;BME280;47864;52.526;19.672;2022-11-28T03:15:20;101857.03;;;2.98;100.00
61908;BME280;47864;52.526;19.672;2022-11-28T03:18:13;101851.66;;;3.01;100.00
61908;BME280;47864;52.526;19.672;2022-11-28T03:20:23;101865.75;;;2.99;100.00
61908;BME280;47864;52.526;19.672;2022-11-28T03:24:44;101856.53;;;2.90;100.00
61908;BME280;47864;52.526;19.672;2022-11-28T03:27:04;101861.78;;;2.90;100.00
61908;BME280;47864;52.526;19.672;2022-11-28T03:31:52;101848.59;;;2.73;100.00
61908;BME280;47864;52.526;19.672;2022-11-28T03:33:58;101863.19;;;2.97;100.00
61908;BME280;47864;52.526;19.672;2022-11-28T03:36:24;101855.69;;;3.09;100.00
61908;BME280;47864;52.526;19.672;2022-11-28T03:38:35;101861.19;;;3.21;100.00
61908;BME280;47864;52.526;19.672;2022-11-28T03:40:42;101865.69;;;3.19;100.00
61908;BME280;47864;52.526;19.672;2022-11-28T03:42:56;101864.59;;;3.23;100.00
61908;BME280;47864;52.526;19.672;2022-11-28T03:45:09;101864.53;;;3.25;100.00
61908;BME280;47864;52.526;19.672;2022-11-28T03:47:11;101866.09;;;3.29;100.00
61908;BME280;47864;52.526;19.672;2022-11-28T03:49:22;101857.09;;;3.34;100.00
61908;BME280;47864;52.526;19.672;2022-11-28T03:51:32;101863.13;;;3.36;100.00
61908;BME280;47864;52.526;19.672;2022-11-28T03:53:52;101859.09;;;3.29;100.00
61908;BME280;47864;52.526;19.672;2022-11-28T03:56:04;101868.00;;;3.25;100.00
61908;BME280;47864;52.526;19.672;2022-11-28T04:00:18;101865.44;;;3.24;100.00
61908;BME280;47864;52.526;19.672;2022-11-28T04:02:41;101859.00;;;3.31;100.00
61908;BME280;47864;52.526;19.672;2022-11-28T04:06:53;101861.00;;;3.26;100.00
61908;BME280;47864;52.526;19.672;2022-11-28T04:09:05;101860.69;;;3.32;100.00
61908;BME280;47864;52.526;19.672;2022-11-28T04:11:19;101853.63;;;3.15;100.00
61908;BME280;47864;52.526;19.672;2022-11-28T04:13:28;101853.63;;;3.15;100.00
61908;BME280;47864;52.526;19.672;2022-11-28T04:17:51;101844.50;;;3.05;100.00
61908;BME280;47864;52.526;19.672;2022-11-28T04:20:48;101844.72;;;3.00;100.00
61908;BME280;47864;52.526;19.672;2022-11-28T04:22:30;101844.22;;;2.92;100.00
61908;BME280;47864;52.526;19.672;2022-11-28T04:24:36;101843.25;;;2.95;100.00
61908;BME280;47864;52.526;19.672;2022-11-28T04:26:48;101833.88;;;2.89;100.00
61908;BME280;47864;52.526;19.672;2022-11-28T04:28:53;101838.44;;;2.86;100.00
61908;BME280;47864;52.526;19.672;2022-11-28T04:30:57;101837.50;;;2.87;100.00
61908;BME280;47864;52.526;19.672;2022-11-28T04:33:05;101828.81;;;2.86;100.00
61908;BME280;47864;52.526;19.672;2022-11-28T04:35:12;101842.22;;;2.97;100.00
61908;BME280;47864;52.526;19.672;2022-11-28T04:37:14;101843.31;;;3.12;100.00
61908;BME280;47864;52.526;19.672;2022-11-28T04:39:20;101844.53;;;3.22;100.00
61908;BME280;47864;52.526;19.672;2022-11-28T04:41:35;101842.28;;;3.33;100.00
61908;BME280;47864;52.526;19.672;2022-11-28T04:43:43;101840.50;;;3.34;100.00
61908;BME280;47864;52.526;19.672;2022-11-28T04:45:50;101839.50;;;3.36;100.00
61908;BME280;47864;52.526;19.672;2022-11-28T04:47:55;101837.03;;;3.33;100.00
61908;BME280;47864;52.526;19.672;2022-11-28T04:49:58;101831.53;;;3.21;100.00
61908;BME280;47864;52.526;19.672;2022-11-28T04:52:09;101842.81;;;3.04;100.00
61908;BME280;47864;52.526;19.672;2022-11-28T04:54:25;101843.56;;;3.06;100.00
61908;BME280;47864;52.526;19.672;2022-11-28T04:56:36;101841.13;;;3.03;100.00
61908;BME280;47864;52.526;19.672;2022-11-28T04:58:42;101848.44;;;3.14;100.00
61908;BME280;47864;52.526;19.672;2022-11-28T05:00:47;101841.16;;;3.20;100.00
61908;BME280;47864;52.526;19.672;2022-11-28T05:02:52;101826.72;;;3.12;100.00
61908;BME280;47864;52.526;19.672;2022-11-28T05:04:55;101848.03;;;3.23;100.00
61908;BME280;47864;52.526;19.672;2022-11-28T05:07:03;101845.75;;;3.15;100.00
61908;BME280;47864;52.526;19.672;2022-11-28T05:09:06;101840.47;;;2.98;100.00
61908;BME280;47864;52.526;19.672;2022-11-28T05:11:07;101848.19;;;3.01;100.00
61908;BME280;47864;52.526;19.672;2022-11-28T05:13:09;101836.63;;;3.05;100.00
61908;BME280;47864;52.526;19.672;2022-11-28T05:15:11;101836.78;;;3.02;100.00
61908;BME280;47864;52.526;19.672;2022-11-28T05:17:13;101841.81;;;3.06;100.00
61908;BME280;47864;52.526;19.672;2022-11-28T05:19:15;101833.88;;;3.08;100.00
61908;BME280;47864;52.526;19.672;2022-11-28T05:21:17;101833.31;;;3.01;100.00
61908;BME280;47864;52.526;19.672;2022-11-28T05:23:19;101838.13;;;2.92;100.00
61908;BME280;47864;52.526;19.672;2022-11-28T05:25:21;101837.41;;;3.07;100.00
61908;BME280;47864;52.526;19.672;2022-11-28T05:27:22;101838.97;;;3.11;100.00
61908;BME280;47864;52.526;19.672;2022-11-28T05:29:24;101835.22;;;2.98;100.00
61908;BME280;47864;52.526;19.672;2022-11-28T05:31:26;101838.06;;;2.93;100.00
61908;BME280;47864;52.526;19.672;2022-11-28T05:33:29;101838.00;;;2.95;100.00
61908;BME280;47864;52.526;19.672;2022-11-28T05:35:31;101837.41;;;3.07;100.00
61908;BME280;47864;52.526;19.672;2022-11-28T05:37:33;101829.63;;;3.05;100.00
61908;BME280;47864;52.526;19.672;2022-11-28T05:39:35;101836.28;;;3.13;100.00
61908;BME280;47864;52.526;19.672;2022-11-28T05:41:37;101833.88;;;3.08;100.00
61908;BME280;47864;52.526;19.672;2022-11-28T05:43:38;101834.97;;;3.04;100.00
61908;BME280;47864;52.526;19.672;2022-11-28T05:45:44;101832.16;;;3.07;100.00
61908;BME280;47864;52.526;19.672;2022-11-28T05:47:46;101834.16;;;3.02;100.00
61908;BME280;47864;52.526;19.672;2022-11-28T05:49:47;101833.25;;;3.03;100.00
61908;BME280;47864;52.526;19.672;2022-11-28T05:51:49;101829.47;;;3.09;100.00
61908;BME280;47864;52.526;19.672;2022-11-28T05:53:51;101826.72;;;3.12;100.00
61908;BME280;47864;52.526;19.672;2022-11-28T05:55:53;101832.47;;;3.01;100.00
61908;BME280;47864;52.526;19.672;2022-11-28T05:57:55;101831.97;;;2.93;100.00
61908;BME280;47864;52.526;19.672;2022-11-28T05:59:57;101836.84;;;3.00;100.00
61908;BME280;47864;52.526;19.672;2022-11-28T06:01:59;101824.84;;;2.96;100.00
61908;BME280;47864;52.526;19.672;2022-11-28T06:04:01;101835.03;;;2.84;100.00
61908;BME280;47864;52.526;19.672;2022-11-28T06:06:03;101831.00;;;2.77;100.00
61908;BME280;47864;52.526;19.672;2022-11-28T06:08:06;101826.22;;;2.66;100.00
61908;BME280;47864;52.526;19.672;2022-11-28T06:10:08;101826.78;;;2.73;100.00
61908;BME280;47864;52.526;19.672;2022-11-28T06:12:09;101825.94;;;2.72;100.00
61908;BME280;47864;52.526;19.672;2022-11-28T06:14:11;101829.50;;;2.71;100.00
61908;BME280;47864;52.526;19.672;2022-11-28T06:16:16;101826.97;;;2.70;100.00
61908;BME280;47864;52.526;19.672;2022-11-28T06:18:18;101825.47;;;2.83;100.00
61908;BME280;47864;52.526;19.672;2022-11-28T06:20:20;101826.94;;;2.88;100.00
61908;BME280;47864;52.526;19.672;2022-11-28T06:22:21;101828.06;;;2.83;100.00
61908;BME280;47864;52.526;19.672;2022-11-28T06:24:23;101827.88;;;2.68;100.00
61908;BME280;47864;52.526;19.672;2022-11-28T06:26:26;101832.63;;;2.79;100.00
61908;BME280;47864;52.526;19.672;2022-11-28T06:28:28;101832.97;;;2.90;100.00
61908;BME280;47864;52.526;19.672;2022-11-28T06:30:30;101830.63;;;2.65;100.00
61908;BME280;47864;52.526;19.672;2022-11-28T06:32:32;101832.63;;;2.60;100.00
61908;BME280;47864;52.526;19.672;2022-11-28T06:34:34;101825.72;;;2.58;100.00
61908;BME280;47864;52.526;19.672;2022-11-28T06:36:35;101829.88;;;2.63;100.00
61908;BME280;47864;52.526;19.672;2022-11-28T06:38:37;101822.19;;;2.59;100.00
61908;BME280;47864;52.526;19.672;2022-11-28T06:40:39;101812.50;;;2.42;100.00
61908;BME280;47864;52.526;19.672;2022-11-28T06:42:41;101835.00;;;2.46;100.00
61908;BME280;47864;52.526;19.672;2022-11-28T06:44:43;101828.16;;;2.62;100.00
61908;BME280;47864;52.526;19.672;2022-11-28T06:46:45;101828.66;;;2.71;100.00
61908;BME280;47864;52.526;19.672;2022-11-28T06:48:48;101831.47;;;2.66;100.00
61908;BME280;47864;52.526;19.672;2022-11-28T06:50:51;101821.69;;;2.51;100.00
61908;BME280;47864;52.526;19.672;2022-11-28T06:52:53;101830.50;;;2.68;100.00
61908;BME280;47864;52.526;19.672;2022-11-28T06:54:55;101827.09;;;2.66;100.00
61908;BME280;47864;52.526;19.672;2022-11-28T06:56:57;101833.81;;;2.72;100.00
61908;BME280;47864;52.526;19.672;2022-11-28T06:58:59;101833.75;;;2.74;100.00
61908;BME280;47864;52.526;19.672;2022-11-28T07:01:06;101838.56;;;2.83;100.00
61908;BME280;47864;52.526;19.672;2022-11-28T07:03:08;101833.75;;;2.74;100.00
61908;BME280;47864;52.526;19.672;2022-11-28T07:05:10;101829.91;;;2.81;100.00
61908;BME280;47864;52.526;19.672;2022-11-28T07:07:12;101829.94;;;2.62;100.00
61908;BME280;47864;52.526;19.672;2022-11-28T07:09:17;101828.50;;;2.74;100.00
61908;BME280;47864;52.526;19.672;2022-11-28T07:11:24;101827.25;;;2.63;100.00
61908;BME280;47864;52.526;19.672;2022-11-28T07:13:26;101821.44;;;2.76;100.00
61908;BME280;47864;52.526;19.672;2022-11-28T07:15:28;101829.13;;;2.60;100.00
61908;BME280;47864;52.526;19.672;2022-11-28T07:17:30;101826.97;;;2.70;100.00
61908;BME280;47864;52.526;19.672;2022-11-28T07:19:32;101821.16;;;2.63;100.00
61908;BME280;47864;52.526;19.672;2022-11-28T07:21:34;101832.03;;;2.73;100.00
61908;BME280;47864;52.526;19.672;2022-11-28T07:23:35;101824.91;;;2.76;100.00
61908;BME280;47864;52.526;19.672;2022-11-28T07:25:37;101816.69;;;2.84;100.00
61908;BME280;47864;52.526;19.672;2022-11-28T07:27:40;101820.28;;;2.81;100.00
61908;BME280;47864;52.526;19.672;2022-11-28T07:29:42;101823.56;;;2.67;100.00
61908;BME280;47864;52.526;19.672;2022-11-28T07:31:44;101807.47;;;2.56;100.00
61908;BME280;47864;52.526;19.672;2022-11-28T07:33:49;101813.06;;;2.67;100.00
61908;BME280;47864;52.526;19.672;2022-11-28T07:35:51;101813.72;;;2.54;100.00
61908;BME280;47864;52.526;19.672;2022-11-28T07:37:53;101812.34;;;2.45;100.00
61908;BME280;47864;52.526;19.672;2022-11-28T07:39:55;101814.34;;;2.59;100.00
61908;BME280;47864;52.526;19.672;2022-11-28T07:41:57;101816.66;;;2.65;100.00
61908;BME280;47864;52.526;19.672;2022-11-28T07:44:00;101805.66;;;2.77;100.00
61908;BME280;47864;52.526;19.672;2022-11-28T07:46:09;101817.75;;;2.80;100.00
61908;BME280;47864;52.526;19.672;2022-11-28T07:48:12;101811.50;;;2.82;100.00
61908;BME280;47864;52.526;19.672;2022-11-28T07:50:13;101819.59;;;2.78;100.00
61908;BME280;47864;52.526;19.672;2022-11-28T07:52:15;101811.25;;;2.70;100.00
61908;BME280;47864;52.526;19.672;2022-11-28T07:54:17;101817.81;;;2.59;100.00
61908;BME280;47864;52.526;19.672;2022-11-28T07:56:22;101812.41;;;2.81;100.00
61908;BME280;47864;52.526;19.672;2022-11-28T07:58:24;101807.53;;;2.74;100.00
61908;BME280;47864;52.526;19.672;2022-11-28T08:00:27;101814.19;;;2.81;100.00
61908;BME280;47864;52.526;19.672;2022-11-28T08:02:29;101812.28;;;2.84;100.00
61908;BME280;47864;52.526;19.672;2022-11-28T08:04:31;101808.47;;;2.91;100.00
61908;BME280;47864;52.526;19.672;2022-11-28T08:06:36;101808.94;;;2.81;100.00
61908;BME280;47864;52.526;19.672;2022-11-28T08:08:38;101808.88;;;3.01;100.00
61908;BME280;47864;52.526;19.672;2022-11-28T08:10:40;101808.94;;;2.99;100.00
61908;BME280;47864;52.526;19.672;2022-11-28T08:12:42;101807.31;;;2.97;100.00
61908;BME280;47864;52.526;19.672;2022-11-28T08:14:44;101810.50;;;3.03;100.00
61908;BME280;47864;52.526;19.672;2022-11-28T08:16:46;101806.25;;;3.01;100.00
61908;BME280;47864;52.526;19.672;2022-11-28T08:18:49;101810.34;;;3.06;100.00
61908;BME280;47864;52.526;19.672;2022-11-28T08:20:51;101807.09;;;3.01;100.00
61908;BME280;47864;52.526;19.672;2022-11-28T08:22:53;101804.41;;;3.03;100.00
61908;BME280;47864;52.526;19.672;2022-11-28T08:24:55;101802.00;;;2.98;100.00
61908;BME280;47864;52.526;19.672;2022-11-28T08:26:57;101798.63;;;3.14;100.00
61908;BME280;47864;52.526;19.672;2022-11-28T08:29:00;101802.53;;;3.24;100.00
61908;BME280;47864;52.526;19.672;2022-11-28T08:31:25;101805.09;;;3.06;100.00
61908;BME280;47864;52.526;19.672;2022-11-28T08:33:24;101800.94;;;3.02;100.00
61908;BME280;47864;52.526;19.672;2022-11-28T08:35:26;101796.56;;;3.03;100.00
61908;BME280;47864;52.526;19.672;2022-11-28T08:37:28;101797.47;;;3.02;100.00
61908;BME280;47864;52.526;19.672;2022-11-28T08:39:29;101801.97;;;3.17;100.00
61908;BME280;47864;52.526;19.672;2022-11-28T08:41:31;101796.28;;;3.26;100.00
61908;BME280;47864;52.526;19.672;2022-11-28T08:43:33;101798.16;;;3.05;100.00
61908;BME280;47864;52.526;19.672;2022-11-28T08:45:36;101801.63;;;3.06;100.00
61908;BME280;47864;52.526;19.672;2022-11-28T08:47:38;101788.81;;;3.00;100.00
61908;BME280;47864;52.526;19.672;2022-11-28T08:49:40;101797.78;;;3.13;100.00
61908;BME280;47864;52.526;19.672;2022-11-28T08:51:42;101800.28;;;3.16;100.00
61908;BME280;47864;52.526;19.672;2022-11-28T08:53:44;101793.25;;;3.17;100.00
61908;BME280;47864;52.526;19.672;2022-11-28T08:55:49;101809.78;;;3.19;100.00
61908;BME280;47864;52.526;19.672;2022-11-28T08:57:51;101800.88;;;3.21;100.00
61908;BME280;47864;52.526;19.672;2022-11-28T08:59:53;101806.34;;;3.35;100.00
61908;BME280;47864;52.526;19.672;2022-11-28T09:01:55;101799.59;;;3.30;100.00
61908;BME280;47864;52.526;19.672;2022-11-28T09:03:57;101798.47;;;3.35;100.00
61908;BME280;47864;52.526;19.672;2022-11-28T09:06:00;101795.53;;;3.41;100.00
61908;BME280;47864;52.526;19.672;2022-11-28T09:08:02;101794.63;;;3.42;100.00
61908;BME280;47864;52.526;19.672;2022-11-28T09:10:08;101806.41;;;3.34;100.00
61908;BME280;47864;52.526;19.672;2022-11-28T09:12:10;101784.94;;;3.26;100.00
61908;BME280;47864;52.526;19.672;2022-11-28T09:14:12;101798.00;;;3.27;100.00
61908;BME280;47864;52.526;19.672;2022-11-28T09:16:14;101790.50;;;3.20;100.00
61908;BME280;47864;52.526;19.672;2022-11-28T09:18:16;101794.91;;;3.19;100.00
61908;BME280;47864;52.526;19.672;2022-11-28T09:20:18;101784.56;;;3.33;100.00
61908;BME280;47864;52.526;19.672;2022-11-28T09:22:20;101785.50;;;3.32;100.00
61908;BME280;47864;52.526;19.672;2022-11-28T09:24:22;101786.34;;;3.33;100.00
61908;BME280;47864;52.526;19.672;2022-11-28T09:26:24;101780.97;;;3.36;100.00
61908;BME280;47864;52.526;19.672;2022-11-28T09:28:26;101772.53;;;3.47;100.00
61908;BME280;47864;52.526;19.672;2022-11-28T09:30:28;101781.19;;;3.49;100.00
61908;BME280;47864;52.526;19.672;2022-11-28T09:32:29;101774.25;;;3.65;100.00
61908;BME280;47864;52.526;19.672;2022-11-28T09:34:31;101775.56;;;3.56;100.00
61908;BME280;47864;52.526;19.672;2022-11-28T09:36:34;101768.47;;;3.58;100.00
61908;BME280;47864;52.526;19.672;2022-11-28T09:38:36;101764.22;;;3.73;100.00
61908;BME280;47864;52.526;19.672;2022-11-28T09:40:39;101766.22;;;3.85;100.00
61908;BME280;47864;52.526;19.672;2022-11-28T09:42:43;101750.09;;;3.75;100.00
61908;BME280;47864;52.526;19.672;2022-11-28T09:44:53;101758.34;;;3.85;100.00
61908;BME280;47864;52.526;19.672;2022-11-28T09:47:02;101766.28;;;3.83;100.00
61908;BME280;47864;52.526;19.672;2022-11-28T09:49:17;101741.97;;;3.80;100.00
61908;BME280;47864;52.526;19.672;2022-11-28T09:53:35;101754.63;;;3.89;100.00
61908;BME280;47864;52.526;19.672;2022-11-28T09:55:49;101756.66;;;3.84;100.00
61908;BME280;47864;52.526;19.672;2022-11-28T09:57:53;101756.19;;;3.76;100.00
61908;BME280;47864;52.526;19.672;2022-11-28T09:59:55;101758.56;;;3.63;100.00
61908;BME280;47864;52.526;19.672;2022-11-28T10:07:14;101748.53;;;3.71;100.00
61908;BME280;47864;52.526;19.672;2022-11-28T10:11:44;101744.00;;;3.58;100.00
61908;BME280;47864;52.526;19.672;2022-11-28T10:18:51;101740.81;;;3.86;100.00
61908;BME280;47864;52.526;19.672;2022-11-28T10:20:58;101731.50;;;3.96;100.00
61908;BME280;47864;52.526;19.672;2022-11-28T10:23:36;101734.75;;;4.01;100.00
61908;BME280;47864;52.526;19.672;2022-11-28T10:25:43;101737.97;;;3.73;100.00
61908;BME280;47864;52.526;19.672;2022-11-28T10:27:48;101736.66;;;3.81;100.00
61908;BME280;47864;52.526;19.672;2022-11-28T10:29:51;101732.72;;;3.73;100.00
61908;BME280;47864;52.526;19.672;2022-11-28T10:31:56;101737.66;;;3.79;100.00
61908;BME280;47864;52.526;19.672;2022-11-28T10:34:29;101733.63;;;3.89;100.00
61908;BME280;47864;52.526;19.672;2022-11-28T10:38:46;101736.53;;;3.67;100.00
61908;BME280;47864;52.526;19.672;2022-11-28T10:41:11;101731.72;;;3.75;100.00
61908;BME280;47864;52.526;19.672;2022-11-28T10:43:19;101728.38;;;3.89;100.00
61908;BME280;47864;52.526;19.672;2022-11-28T10:48:23;101732.53;;;4.26;100.00
61908;BME280;47864;52.526;19.672;2022-11-28T10:50:57;101731.28;;;4.49;100.00
61908;BME280;47864;52.526;19.672;2022-11-28T11:00:08;101725.25;;;4.47;100.00
61908;BME280;47864;52.526;19.672;2022-11-28T11:02:25;101722.81;;;4.44;100.00
61908;BME280;47864;52.526;19.672;2022-11-28T11:04:32;101724.66;;;4.57;100.00
61908;BME280;47864;52.526;19.672;2022-11-28T11:06:37;101717.44;;;4.45;100.00
61908;BME280;47864;52.526;19.672;2022-11-28T11:08:54;101720.56;;;4.20;100.00
61908;BME280;47864;52.526;19.672;2022-11-28T11:13:33;101722.69;;;3.81;100.00
61908;BME280;47864;52.526;19.672;2022-11-28T11:15:35;101722.28;;;3.71;100.00
61908;BME280;47864;52.526;19.672;2022-11-28T11:17:37;101719.44;;;3.76;100.00
61908;BME280;47864;52.526;19.672;2022-11-28T11:19:39;101710.47;;;3.80;100.00
61908;BME280;47864;52.526;19.672;2022-11-28T11:26:27;101728.09;;;3.78;100.00
61908;BME280;47864;52.526;19.672;2022-11-28T11:28:46;101720.56;;;3.88;100.00
61908;BME280;47864;52.526;19.672;2022-11-28T11:30:48;101717.88;;;3.89;100.00
61908;BME280;47864;52.526;19.672;2022-11-28T11:32:59;101700.56;;;3.69;100.00
61908;BME280;47864;52.526;19.672;2022-11-28T11:35:02;101711.94;;;3.86;100.00
61908;BME280;47864;52.526;19.672;2022-11-28T11:37:40;101715.53;;;4.00;100.00
61908;BME280;47864;52.526;19.672;2022-11-28T11:39:49;101718.69;;;4.07;100.00
61908;BME280;47864;52.526;19.672;2022-11-28T11:46:16;101708.03;;;3.77;100.00
61908;BME280;47864;52.526;19.672;2022-11-28T11:48:34;101692.47;;;3.90;100.00
61908;BME280;47864;52.526;19.672;2022-11-28T11:50:36;101708.13;;;4.24;100.00
61908;BME280;47864;52.526;19.672;2022-11-28T11:52:38;101712.53;;;4.24;100.00
61908;BME280;47864;52.526;19.672;2022-11-28T11:57:12;101713.63;;;4.19;100.00
61908;BME280;47864;52.526;19.672;2022-11-28T11:59:49;101703.72;;;4.25;100.00
61908;BME280;47864;52.526;19.672;2022-11-28T12:02:00;101703.22;;;4.34;100.00
61908;BME280;47864;52.526;19.672;2022-11-28T12:04:04;101709.63;;;4.12;100.00
61908;BME280;47864;52.526;19.672;2022-11-28T12:06:37;101706.41;;;4.23;100.00
61908;BME280;47864;52.526;19.672;2022-11-28T12:08:50;101697.63;;;4.24;100.00
61908;BME280;47864;52.526;19.672;2022-11-28T12:13:24;101704.06;;;4.66;100.00
61908;BME280;47864;52.526;19.672;2022-11-28T12:15:35;101691.00;;;4.33;100.00
61908;BME280;47864;52.526;19.672;2022-11-28T12:25:12;101681.00;;;4.08;100.00
61908;BME280;47864;52.526;19.672;2022-11-28T12:31:11;101687.75;;;3.96;100.00
61908;BME280;47864;52.526;19.672;2022-11-28T12:35:07;101686.94;;;4.11;100.00